createdAt,value
2019-01-09T00:02:38.761Z,0.00
2019-01-09T00:16:38.611Z,0.00
2019-01-09T00:35:38.397Z,0.00
2019-01-09T01:16:02.455Z,0.00
2019-01-09T01:27:02.291Z,0.00
2019-01-09T02:14:01.767Z,0.00
2019-01-09T02:15:01.750Z,0.00
2019-01-09T02:56:01.290Z,0.00
2019-01-09T03:02:01.226Z,0.00
2019-01-09T03:05:01.190Z,0.00
2019-01-09T03:24:00.974Z,0.00
2019-01-09T03:30:00.903Z,0.00
2019-01-09T03:33:00.872Z,0.00
2019-01-09T03:42:00.772Z,0.00
2019-01-09T04:08:00.483Z,0.00
2019-01-09T04:13:00.423Z,0.00
2019-01-09T04:25:00.282Z,0.00
2019-01-09T04:28:00.252Z,0.00
2019-01-09T04:46:00.052Z,4.00
2019-01-09T04:47:00.036Z,4.00
2019-01-09T04:48:00.023Z,4.00
2019-01-09T04:49:00.012Z,4.00
2019-01-09T04:50:00.000Z,4.00
2019-01-09T04:50:59.990Z,4.00
2019-01-09T04:51:59.983Z,4.00
2019-01-09T04:52:59.972Z,4.00
2019-01-09T04:53:59.959Z,4.00
2019-01-09T04:54:59.944Z,4.00
2019-01-09T04:55:59.939Z,4.00
2019-01-09T04:56:59.930Z,4.00
2019-01-09T04:57:59.911Z,4.00
2019-01-09T04:58:59.900Z,4.00
2019-01-09T04:59:59.887Z,4.00
2019-01-09T05:00:59.883Z,4.00
2019-01-09T05:01:59.868Z,4.00
2019-01-09T05:02:59.859Z,4.00
2019-01-09T05:03:59.845Z,4.00
2019-01-09T05:04:59.840Z,4.00
2019-01-09T05:05:59.819Z,4.00
2019-01-09T05:07:00.605Z,4.00
2019-01-09T05:07:59.803Z,4.00
2019-01-09T05:08:59.795Z,4.00
2019-01-09T05:09:59.775Z,4.00
2019-01-09T05:10:59.771Z,4.00
2019-01-09T05:11:59.752Z,4.00
2019-01-09T05:12:59.745Z,4.00
2019-01-09T05:13:59.729Z,4.00
2019-01-09T05:14:59.719Z,4.00
2019-01-09T05:15:59.706Z,4.00
2019-01-09T05:16:59.696Z,4.00
2019-01-09T05:17:59.688Z,4.00
2019-01-09T05:18:59.677Z,4.00
2019-01-09T05:19:59.663Z,4.00
2019-01-09T05:20:59.653Z,4.00
2019-01-09T05:21:59.641Z,4.00
2019-01-09T05:22:59.630Z,4.00
2019-01-09T05:23:59.619Z,4.00
2019-01-09T05:24:59.605Z,4.00
2019-01-09T05:25:59.594Z,4.00
2019-01-09T05:26:59.583Z,4.00
2019-01-09T05:27:59.570Z,4.00
2019-01-09T05:28:59.559Z,4.00
2019-01-09T05:29:59.553Z,4.00
2019-01-09T05:31:07.528Z,4.00
2019-01-09T05:32:24.015Z,4.00
2019-01-09T05:33:23.998Z,4.00
2019-01-09T05:34:23.989Z,4.00
2019-01-09T05:35:23.976Z,4.00
2019-01-09T05:36:23.963Z,4.00
2019-01-09T05:37:23.955Z,4.00
2019-01-09T05:38:23.950Z,4.00
2019-01-09T05:39:23.932Z,4.00
2019-01-09T05:40:23.924Z,4.00
2019-01-09T05:41:23.906Z,4.00
2019-01-09T05:42:23.900Z,4.00
2019-01-09T05:43:23.909Z,4.00
2019-01-09T05:44:23.875Z,4.00
2019-01-09T05:45:23.865Z,4.00
2019-01-09T05:46:23.850Z,4.00
2019-01-09T05:47:23.838Z,4.00
2019-01-09T05:48:23.826Z,4.00
2019-01-09T05:49:23.820Z,4.00
2019-01-09T05:50:23.803Z,4.00
2019-01-09T05:51:23.791Z,4.00
2019-01-09T05:52:23.781Z,4.00
2019-01-09T05:53:23.768Z,4.00
2019-01-09T05:54:23.759Z,4.00
2019-01-09T05:55:23.765Z,4.00
2019-01-09T05:56:23.736Z,4.00
2019-01-09T05:57:23.724Z,4.00
2019-01-09T05:58:23.712Z,4.00
2019-01-09T05:59:23.700Z,4.00
2019-01-09T06:00:23.690Z,4.00
2019-01-09T06:01:23.677Z,4.00
2019-01-09T06:02:23.672Z,4.00
2019-01-09T06:03:23.660Z,4.00
2019-01-09T06:04:23.642Z,4.00
2019-01-09T06:05:23.632Z,4.00
2019-01-09T06:06:23.625Z,4.00
2019-01-09T06:07:23.608Z,4.00
2019-01-09T06:08:23.599Z,4.00
2019-01-09T06:09:23.589Z,4.00
2019-01-09T06:10:23.579Z,4.00
2019-01-09T06:11:23.564Z,4.00
2019-01-09T06:12:23.551Z,4.00
2019-01-09T06:13:23.545Z,4.00
2019-01-09T06:14:23.531Z,4.00
2019-01-09T06:15:23.521Z,4.00
2019-01-09T06:16:23.527Z,4.00
2019-01-09T06:17:23.530Z,4.00
2019-01-09T06:18:23.545Z,4.00
2019-01-09T06:19:23.477Z,4.00
2019-01-09T06:20:23.477Z,4.00
2019-01-09T06:21:23.487Z,4.00
2019-01-09T06:22:23.481Z,4.00
2019-01-09T06:23:23.487Z,4.00
2019-01-09T06:24:23.415Z,4.00
2019-01-09T06:25:23.404Z,4.00
2019-01-09T06:26:23.394Z,4.00
2019-01-09T06:27:23.388Z,4.00
2019-01-09T06:28:23.374Z,4.00
2019-01-09T06:29:23.358Z,4.00
2019-01-09T06:30:23.349Z,4.00
2019-01-09T06:31:23.338Z,4.00
2019-01-09T06:32:23.331Z,4.00
2019-01-09T06:33:23.318Z,4.00
2019-01-09T06:34:23.307Z,4.00
2019-01-09T06:35:23.291Z,4.00
2019-01-09T06:36:23.287Z,4.00
2019-01-09T06:37:27.658Z,4.00
2019-01-09T06:38:23.265Z,4.00
2019-01-09T06:39:23.246Z,4.00
2019-01-09T06:40:23.242Z,4.00
2019-01-09T06:41:23.229Z,4.00
2019-01-09T06:42:23.219Z,0.00
2019-01-09T06:43:23.201Z,0.00
2019-01-09T06:44:23.191Z,4.00
2019-01-09T06:45:23.183Z,4.00
2019-01-09T06:46:23.178Z,4.00
2019-01-09T06:47:23.160Z,4.00
2019-01-09T06:48:23.153Z,4.00
2019-01-09T06:49:23.134Z,4.00
2019-01-09T06:50:23.130Z,8.00
2019-01-09T06:51:23.117Z,8.00
2019-01-09T06:52:23.103Z,4.00
2019-01-09T06:53:23.089Z,4.00
2019-01-09T06:54:23.108Z,8.00
2019-01-09T06:55:23.091Z,8.00
2019-01-09T06:56:23.055Z,8.00
2019-01-09T06:57:23.044Z,8.00
2019-01-09T06:58:23.036Z,8.00
2019-01-09T06:59:23.022Z,8.00
2019-01-09T07:00:23.010Z,8.00
2019-01-09T07:01:23.015Z,12.00
2019-01-09T07:02:22.988Z,12.00
2019-01-09T07:03:22.982Z,12.00
2019-01-09T07:04:22.972Z,8.00
2019-01-09T07:05:22.954Z,12.00
2019-01-09T07:06:23.002Z,12.00
2019-01-09T07:07:22.930Z,12.00
2019-01-09T07:08:22.921Z,12.00
2019-01-09T07:09:22.911Z,16.00
2019-01-09T07:10:22.904Z,16.00
2019-01-09T07:11:22.887Z,20.00
2019-01-09T07:12:22.876Z,24.00
2019-01-09T07:13:22.862Z,24.00
2019-01-09T07:14:22.853Z,28.00
2019-01-09T07:15:22.842Z,28.00
2019-01-09T07:16:22.828Z,32.00
2019-01-09T07:17:22.820Z,32.00
2019-01-09T07:18:22.809Z,40.00
2019-01-09T07:19:22.797Z,44.00
2019-01-09T07:20:22.789Z,44.00
2019-01-09T07:21:22.780Z,48.00
2019-01-09T07:22:22.763Z,52.00
2019-01-09T07:23:22.811Z,56.00
2019-01-09T07:24:22.743Z,64.00
2019-01-09T07:25:22.730Z,60.00
2019-01-09T07:26:22.716Z,68.00
2019-01-09T07:27:22.705Z,68.00
2019-01-09T07:28:22.705Z,92.00
2019-01-09T07:29:22.688Z,104.00
2019-01-09T07:30:22.677Z,108.00
2019-01-09T07:31:22.662Z,112.00
2019-01-09T07:32:22.650Z,120.00
2019-01-09T07:33:22.640Z,144.00
2019-01-09T07:34:22.672Z,164.00
2019-01-09T07:35:22.621Z,176.00
2019-01-09T07:36:22.608Z,180.00
2019-01-09T07:37:22.621Z,204.00
2019-01-09T07:38:22.590Z,192.00
2019-01-09T07:39:22.574Z,212.00
2019-01-09T07:40:22.568Z,184.00
2019-01-09T07:41:22.557Z,212.00
2019-01-09T07:42:22.545Z,228.00
2019-01-09T07:43:22.531Z,268.00
2019-01-09T07:44:22.517Z,276.00
2019-01-09T07:45:22.505Z,304.00
2019-01-09T07:46:22.498Z,296.00
2019-01-09T07:47:22.485Z,272.00
2019-01-09T07:48:22.471Z,260.00
2019-01-09T07:49:22.460Z,284.00
2019-01-09T07:50:22.454Z,332.00
2019-01-09T07:51:22.529Z,352.00
2019-01-09T07:52:22.431Z,360.00
2019-01-09T07:53:22.418Z,356.00
2019-01-09T07:54:22.407Z,416.00
2019-01-09T07:55:22.395Z,564.00
2019-01-09T07:56:22.382Z,524.00
2019-01-09T07:57:22.369Z,540.00
2019-01-09T07:58:22.359Z,560.00
2019-01-09T07:59:22.348Z,524.00
2019-01-09T08:00:22.335Z,520.00
2019-01-09T08:01:22.332Z,540.00
2019-01-09T08:02:22.316Z,524.00
2019-01-09T08:03:22.303Z,528.00
2019-01-09T08:04:22.298Z,556.00
2019-01-09T08:05:22.284Z,560.00
2019-01-09T08:06:22.272Z,524.00
2019-01-09T08:07:22.259Z,548.00
2019-01-09T08:08:22.247Z,568.00
2019-01-09T08:09:22.237Z,592.00
2019-01-09T08:10:22.223Z,572.00
2019-01-09T08:11:22.218Z,660.00
2019-01-09T08:12:22.201Z,660.00
2019-01-09T08:13:22.189Z,684.00
2019-01-09T08:14:22.184Z,688.00
2019-01-09T08:15:22.168Z,672.00
2019-01-09T08:16:22.156Z,660.00
2019-01-09T08:17:22.145Z,612.00
2019-01-09T08:18:22.133Z,620.00
2019-01-09T08:19:22.125Z,596.00
2019-01-09T08:20:22.112Z,644.00
2019-01-09T08:21:22.101Z,704.00
2019-01-09T08:22:22.088Z,688.00
2019-01-09T08:23:22.100Z,584.00
2019-01-09T08:24:22.066Z,684.00
2019-01-09T08:25:22.061Z,684.00
2019-01-09T08:26:22.047Z,644.00
2019-01-09T08:27:22.036Z,668.00
2019-01-09T08:28:22.025Z,624.00
2019-01-09T08:29:22.015Z,632.00
2019-01-09T08:30:22.009Z,652.00
2019-01-09T08:31:21.990Z,676.00
2019-01-09T08:32:21.978Z,688.00
2019-01-09T08:33:21.972Z,672.00
2019-01-09T08:34:21.961Z,688.00
2019-01-09T08:35:21.950Z,684.00
2019-01-09T08:36:21.934Z,720.00
2019-01-09T08:37:21.920Z,704.00
2019-01-09T08:38:21.911Z,724.00
2019-01-09T08:39:22.830Z,752.00
2019-01-09T08:40:21.889Z,688.00
2019-01-09T08:41:21.951Z,780.00
2019-01-09T08:42:21.869Z,760.00
2019-01-09T08:43:21.855Z,844.00
2019-01-09T08:44:21.843Z,932.00
2019-01-09T08:45:21.831Z,928.00
2019-01-09T08:46:21.824Z,864.00
2019-01-09T08:47:21.808Z,912.00
2019-01-09T08:48:21.797Z,880.00
2019-01-09T08:49:21.786Z,956.00
2019-01-09T08:50:21.774Z,1028.00
2019-01-09T08:51:21.770Z,972.00
2019-01-09T08:52:21.754Z,992.00
2019-01-09T08:53:21.740Z,936.00
2019-01-09T08:54:21.731Z,904.00
2019-01-09T08:55:21.718Z,988.00
2019-01-09T08:56:21.707Z,972.00
2019-01-09T08:57:21.701Z,1068.00
2019-01-09T08:58:21.684Z,1084.00
2019-01-09T08:59:21.672Z,1112.00
2019-01-09T09:00:21.664Z,1076.00
2019-01-09T09:01:21.650Z,1152.00
2019-01-09T09:02:21.639Z,1156.00
2019-01-09T09:03:21.632Z,1116.00
2019-01-09T09:04:21.620Z,1152.00
2019-01-09T09:05:21.604Z,1184.00
2019-01-09T09:06:21.593Z,1180.00
2019-01-09T09:07:21.581Z,1184.00
2019-01-09T09:08:21.570Z,1276.00
2019-01-09T09:09:21.559Z,1252.00
2019-01-09T09:10:21.547Z,1344.00
2019-01-09T09:11:21.536Z,1392.00
2019-01-09T09:12:21.530Z,1472.00
2019-01-09T09:13:21.516Z,1404.00
2019-01-09T09:14:21.503Z,1436.00
2019-01-09T09:15:21.490Z,1472.00
2019-01-09T09:16:21.478Z,1612.00
2019-01-09T09:17:21.468Z,1696.00
2019-01-09T09:18:21.465Z,1636.00
2019-01-09T09:19:21.450Z,1576.00
2019-01-09T09:20:21.444Z,1520.00
2019-01-09T09:21:21.422Z,1664.00
2019-01-09T09:22:21.415Z,1748.00
2019-01-09T09:23:21.399Z,1832.00
2019-01-09T09:24:21.394Z,1780.00
2019-01-09T09:25:21.377Z,1912.00
2019-01-09T09:26:21.365Z,1932.00
2019-01-09T09:27:21.353Z,2144.00
2019-01-09T09:28:21.342Z,2364.00
2019-01-09T09:29:21.330Z,2460.00
2019-01-09T09:30:21.321Z,2148.00
2019-01-09T09:31:21.394Z,2156.00
2019-01-09T09:32:21.297Z,1640.00
2019-01-09T09:33:21.292Z,1888.00
2019-01-09T09:34:21.277Z,1848.00
2019-01-09T09:35:21.275Z,1956.00
2019-01-09T09:36:21.250Z,2276.00
2019-01-09T09:37:21.241Z,2392.00
2019-01-09T09:38:21.228Z,2504.00
2019-01-09T09:39:21.220Z,2320.00
2019-01-09T09:40:21.207Z,2564.00
2019-01-09T09:41:21.193Z,2756.00
2019-01-09T09:42:21.185Z,2708.00
2019-01-09T09:43:21.171Z,2508.00
2019-01-09T09:44:21.161Z,2216.00
2019-01-09T09:45:21.154Z,2108.00
2019-01-09T09:46:21.143Z,2104.00
2019-01-09T09:47:21.130Z,2264.00
2019-01-09T09:48:21.113Z,2612.00
2019-01-09T09:49:21.104Z,2788.00
2019-01-09T09:50:21.090Z,3252.00
2019-01-09T09:51:21.087Z,3004.00
2019-01-09T09:52:21.075Z,2780.00
2019-01-09T09:53:21.057Z,2904.00
2019-01-09T09:54:21.045Z,2732.00
2019-01-09T09:55:21.035Z,2904.00
2019-01-09T09:56:21.023Z,3464.00
2019-01-09T09:57:21.017Z,3680.00
2019-01-09T09:58:21.001Z,4152.00
2019-01-09T09:59:20.991Z,4012.00
2019-01-09T10:00:20.983Z,3448.00
2019-01-09T10:01:20.969Z,3440.00
2019-01-09T10:02:20.960Z,3020.00
2019-01-09T10:03:20.942Z,3048.00
2019-01-09T10:04:20.938Z,2684.00
2019-01-09T10:05:20.926Z,2824.00
2019-01-09T10:06:20.908Z,2556.00
2019-01-09T10:07:20.902Z,2412.00
2019-01-09T10:08:29.092Z,2112.00
2019-01-09T10:09:45.352Z,2056.00
2019-01-09T10:10:45.342Z,2196.00
2019-01-09T10:11:45.336Z,2268.00
2019-01-09T10:12:45.324Z,1880.00
2019-01-09T10:13:45.307Z,1864.00
2019-01-09T10:14:45.295Z,1876.00
2019-01-09T10:15:45.284Z,2260.00
2019-01-09T10:16:45.273Z,2640.00
2019-01-09T10:17:45.260Z,2560.00
2019-01-09T10:18:45.249Z,2500.00
2019-01-09T10:19:45.243Z,2228.00
2019-01-09T10:20:45.226Z,2336.00
2019-01-09T10:21:45.215Z,2192.00
2019-01-09T10:22:45.203Z,2296.00
2019-01-09T10:23:45.193Z,2072.00
2019-01-09T10:24:45.191Z,2236.00
2019-01-09T10:25:45.175Z,2432.00
2019-01-09T10:26:45.159Z,2568.00
2019-01-09T10:27:45.195Z,2292.00
2019-01-09T10:28:45.133Z,2564.00
2019-01-09T10:29:45.122Z,2240.00
2019-01-09T10:30:45.110Z,2456.00
2019-01-09T10:31:45.101Z,2532.00
2019-01-09T10:32:45.092Z,2396.00
2019-01-09T10:33:45.080Z,2380.00
2019-01-09T10:34:45.066Z,2168.00
2019-01-09T10:35:45.054Z,1920.00
2019-01-09T10:36:45.042Z,2068.00
2019-01-09T10:37:45.032Z,1880.00
2019-01-09T10:38:45.020Z,2164.00
2019-01-09T10:39:45.013Z,2096.00
2019-01-09T10:40:44.999Z,1968.00
2019-01-09T10:41:44.994Z,2164.00
2019-01-09T10:42:44.973Z,2352.00
2019-01-09T10:43:44.964Z,2404.00
2019-01-09T10:44:44.953Z,2264.00
2019-01-09T10:45:44.941Z,2260.00
2019-01-09T10:46:44.940Z,2232.00
2019-01-09T10:47:44.915Z,2364.00
2019-01-09T10:48:44.915Z,2488.00
2019-01-09T10:49:44.893Z,2336.00
2019-01-09T10:50:44.893Z,2224.00
2019-01-09T10:51:44.938Z,2132.00
2019-01-09T10:52:44.866Z,2088.00
2019-01-09T10:53:44.852Z,2208.00
2019-01-09T10:54:44.840Z,1880.00
2019-01-09T10:55:44.833Z,1864.00
2019-01-09T10:56:44.811Z,1720.00
2019-01-09T10:57:44.802Z,1924.00
2019-01-09T10:58:44.799Z,1748.00
2019-01-09T10:59:44.804Z,1804.00
2019-01-09T11:00:44.771Z,1992.00
2019-01-09T11:01:44.755Z,1800.00
2019-01-09T11:02:44.746Z,1964.00
2019-01-09T11:03:44.737Z,1824.00
2019-01-09T11:04:44.725Z,2028.00
2019-01-09T11:05:44.712Z,2024.00
2019-01-09T11:06:44.698Z,2220.00
2019-01-09T11:07:44.695Z,2416.00
2019-01-09T11:08:47.054Z,2560.00
2019-01-09T11:09:44.663Z,2392.00
2019-01-09T11:10:44.651Z,2268.00
2019-01-09T11:11:44.643Z,2296.00
2019-01-09T11:12:44.627Z,2288.00
2019-01-09T11:13:44.618Z,2324.00
2019-01-09T11:14:44.607Z,2680.00
2019-01-09T11:15:44.601Z,2944.00
2019-01-09T11:16:44.582Z,2760.00
2019-01-09T11:17:44.574Z,2540.00
2019-01-09T11:18:44.559Z,2344.00
2019-01-09T11:19:44.547Z,2268.00
2019-01-09T11:20:44.541Z,2056.00
2019-01-09T11:21:44.547Z,2132.00
2019-01-09T11:22:44.550Z,2340.00
2019-01-09T11:23:44.552Z,2172.00
2019-01-09T11:24:44.530Z,2404.00
2019-01-09T11:25:44.508Z,2484.00
2019-01-09T11:26:44.506Z,2508.00
2019-01-09T11:27:44.502Z,2916.00
2019-01-09T11:28:44.446Z,2808.00
2019-01-09T11:29:44.431Z,3136.00
2019-01-09T11:30:44.425Z,3016.00
2019-01-09T11:31:44.412Z,3228.00
2019-01-09T11:32:44.398Z,3052.00
2019-01-09T11:33:44.391Z,2800.00
2019-01-09T11:34:44.376Z,3236.00
2019-01-09T11:35:44.371Z,3152.00
2019-01-09T11:36:44.355Z,3216.00
2019-01-09T11:37:44.343Z,2944.00
2019-01-09T11:38:44.336Z,3088.00
2019-01-09T11:39:44.317Z,3244.00
2019-01-09T11:40:44.305Z,3160.00
2019-01-09T11:41:44.296Z,3040.00
2019-01-09T11:42:44.291Z,2976.00
2019-01-09T11:43:44.273Z,3076.00
2019-01-09T11:44:44.259Z,2916.00
2019-01-09T11:45:44.252Z,3096.00
2019-01-09T11:46:44.238Z,2744.00
2019-01-09T11:47:44.226Z,2600.00
2019-01-09T11:48:44.224Z,2908.00
2019-01-09T11:49:44.204Z,3096.00
2019-01-09T11:50:44.194Z,3084.00
2019-01-09T11:51:44.179Z,2816.00
2019-01-09T11:52:44.167Z,2892.00
2019-01-09T11:53:44.159Z,3260.00
2019-01-09T11:54:44.151Z,2656.00
2019-01-09T11:55:44.134Z,2748.00
2019-01-09T11:56:44.122Z,2712.00
2019-01-09T11:57:44.112Z,2548.00
2019-01-09T11:59:44.089Z,2592.00
2019-01-09T12:00:44.077Z,2736.00
2019-01-09T12:01:44.067Z,2808.00
2019-01-09T12:02:44.056Z,2520.00
2019-01-09T12:03:44.045Z,2392.00
2019-01-09T12:04:44.042Z,2392.00
2019-01-09T12:05:44.023Z,2160.00
2019-01-09T12:06:44.008Z,2012.00
2019-01-09T12:07:43.996Z,1932.00
2019-01-09T12:08:43.988Z,1928.00
2019-01-09T12:09:43.976Z,1916.00
2019-01-09T12:10:43.964Z,1952.00
2019-01-09T12:11:43.958Z,1880.00
2019-01-09T12:12:43.943Z,2220.00
2019-01-09T12:13:43.929Z,2144.00
2019-01-09T12:14:43.916Z,2012.00
2019-01-09T12:15:43.905Z,2020.00
2019-01-09T12:16:43.902Z,2184.00
2019-01-09T12:17:43.882Z,1720.00
2019-01-09T12:18:43.875Z,1724.00
2019-01-09T12:19:43.860Z,1580.00
2019-01-09T12:20:43.851Z,1632.00
2019-01-09T12:21:43.839Z,1612.00
2019-01-09T12:22:43.827Z,1660.00
2019-01-09T12:23:43.815Z,1500.00
2019-01-09T12:24:43.805Z,1408.00
2019-01-09T12:25:43.800Z,1312.00
2019-01-09T12:26:43.779Z,1616.00
2019-01-09T12:27:43.769Z,1604.00
2019-01-09T12:28:43.757Z,1584.00
2019-01-09T12:29:43.746Z,1500.00
2019-01-09T12:30:43.736Z,1736.00
2019-01-09T12:31:43.741Z,1496.00
2019-01-09T12:32:43.712Z,1500.00
2019-01-09T12:33:43.698Z,1456.00
2019-01-09T12:34:43.698Z,1308.00
2019-01-09T12:35:43.676Z,1428.00
2019-01-09T12:36:43.666Z,1480.00
2019-01-09T12:37:43.656Z,1432.00
2019-01-09T12:38:43.846Z,1368.00
2019-01-09T12:39:43.632Z,1496.00
2019-01-09T12:40:43.621Z,1472.00
2019-01-09T12:41:43.615Z,1468.00
2019-01-09T12:42:43.598Z,1368.00
2019-01-09T12:43:43.667Z,1372.00
2019-01-09T12:44:43.575Z,1328.00
2019-01-09T12:45:43.563Z,1200.00
2019-01-09T12:46:43.552Z,1152.00
2019-01-09T12:47:43.544Z,1260.00
2019-01-09T12:48:43.536Z,1276.00
2019-01-09T12:49:43.518Z,1412.00
2019-01-09T12:50:43.512Z,1216.00
2019-01-09T12:51:43.498Z,1396.00
2019-01-09T12:52:43.484Z,1376.00
2019-01-09T12:53:43.479Z,1352.00
2019-01-09T12:54:43.461Z,1324.00
2019-01-09T12:55:43.456Z,1344.00
2019-01-09T12:56:43.446Z,1284.00
2019-01-09T12:57:43.525Z,1176.00
2019-01-09T12:58:43.420Z,1244.00
2019-01-09T12:59:43.404Z,1396.00
2019-01-09T13:00:43.397Z,1192.00
2019-01-09T13:01:43.390Z,1232.00
2019-01-09T13:02:43.371Z,1236.00
2019-01-09T13:03:43.361Z,1296.00
2019-01-09T13:04:43.347Z,1072.00
2019-01-09T13:05:43.343Z,1064.00
2019-01-09T13:06:43.333Z,1224.00
2019-01-09T13:07:43.314Z,1324.00
2019-01-09T13:08:43.306Z,1268.00
2019-01-09T13:09:43.291Z,1356.00
2019-01-09T13:10:43.283Z,1368.00
2019-01-09T13:11:43.274Z,1388.00
2019-01-09T13:12:43.259Z,1484.00
2019-01-09T13:13:43.247Z,1292.00
2019-01-09T13:14:43.237Z,1336.00
2019-01-09T13:15:43.231Z,1348.00
2019-01-09T13:16:47.606Z,1192.00
2019-01-09T13:17:43.209Z,1176.00
2019-01-09T13:18:43.187Z,1108.00
2019-01-09T13:19:43.188Z,1156.00
2019-01-09T13:20:43.166Z,1156.00
2019-01-09T13:21:43.161Z,1120.00
2019-01-09T13:22:43.143Z,1148.00
2019-01-09T13:23:43.135Z,1068.00
2019-01-09T13:24:43.122Z,1016.00
2019-01-09T13:25:43.111Z,1012.00
2019-01-09T13:26:43.098Z,904.00
2019-01-09T13:27:43.091Z,1092.00
2019-01-09T13:28:43.078Z,1020.00
2019-01-09T13:29:43.066Z,1020.00
2019-01-09T13:30:43.054Z,1032.00
2019-01-09T13:31:43.057Z,1012.00
2019-01-09T13:32:43.039Z,968.00
2019-01-09T13:33:43.025Z,1044.00
2019-01-09T13:34:43.008Z,1052.00
2019-01-09T13:35:42.998Z,1040.00
2019-01-09T13:36:42.987Z,1056.00
2019-01-09T13:37:42.974Z,1020.00
2019-01-09T13:38:42.963Z,1168.00
2019-01-09T13:39:42.956Z,1196.00
2019-01-09T13:40:42.940Z,1252.00
2019-01-09T13:41:42.937Z,1092.00
2019-01-09T13:42:42.922Z,1092.00
2019-01-09T13:43:42.908Z,1176.00
2019-01-09T13:44:42.895Z,1044.00
2019-01-09T13:45:42.890Z,1064.00
2019-01-09T13:46:42.878Z,1136.00
2019-01-09T13:47:44.865Z,1016.00
2019-01-09T13:48:42.852Z,1124.00
2019-01-09T13:49:42.843Z,1156.00
2019-01-09T13:50:42.832Z,1256.00
2019-01-09T13:51:42.814Z,1232.00
2019-01-09T13:52:42.834Z,1240.00
2019-01-09T13:53:42.794Z,1244.00
2019-01-09T13:54:42.788Z,1252.00
2019-01-09T13:55:42.778Z,1280.00
2019-01-09T13:56:42.769Z,1128.00
2019-01-09T13:57:42.747Z,1056.00
2019-01-09T13:58:42.957Z,1188.00
2019-01-09T13:59:42.726Z,1144.00
2019-01-09T14:00:42.723Z,1060.00
2019-01-09T14:01:42.705Z,1024.00
2019-01-09T14:02:42.691Z,1032.00
2019-01-09T14:03:42.677Z,860.00
2019-01-09T14:04:42.666Z,928.00
2019-01-09T14:05:42.663Z,952.00
2019-01-09T14:06:42.649Z,992.00
2019-01-09T14:07:42.639Z,976.00
2019-01-09T14:08:42.625Z,1024.00
2019-01-09T14:09:42.612Z,1148.00
2019-01-09T14:10:42.606Z,1104.00
2019-01-09T14:11:42.592Z,1172.00
2019-01-09T14:12:42.687Z,1084.00
2019-01-09T14:13:42.572Z,988.00
2019-01-09T14:14:42.556Z,976.00
2019-01-09T14:15:42.544Z,944.00
2019-01-09T14:16:42.533Z,792.00
2019-01-09T14:17:42.527Z,756.00
2019-01-09T14:18:42.509Z,740.00
2019-01-09T14:19:42.497Z,652.00
2019-01-09T14:20:42.490Z,672.00
2019-01-09T14:21:42.482Z,584.00
2019-01-09T14:22:42.467Z,528.00
2019-01-09T14:23:42.454Z,544.00
2019-01-09T14:24:42.442Z,464.00
2019-01-09T14:25:42.434Z,480.00
2019-01-09T14:26:42.419Z,424.00
2019-01-09T14:27:42.411Z,436.00
2019-01-09T14:28:42.406Z,412.00
2019-01-09T14:29:42.384Z,360.00
2019-01-09T14:30:42.374Z,372.00
2019-01-09T14:31:42.361Z,380.00
2019-01-09T14:32:42.351Z,376.00
2019-01-09T14:33:42.337Z,336.00
2019-01-09T14:34:42.330Z,320.00
2019-01-09T14:35:42.321Z,256.00
2019-01-09T14:36:42.309Z,220.00
2019-01-09T14:37:42.294Z,208.00
2019-01-09T14:38:42.285Z,196.00
2019-01-09T14:39:48.001Z,176.00
2019-01-09T14:41:06.760Z,144.00
2019-01-09T14:42:06.734Z,132.00
2019-01-09T14:43:06.727Z,120.00
2019-01-09T14:44:06.713Z,108.00
2019-01-09T14:45:06.703Z,96.00
2019-01-09T14:46:06.692Z,112.00
2019-01-09T14:47:06.681Z,116.00
2019-01-09T14:48:06.669Z,136.00
2019-01-09T14:49:06.658Z,132.00
2019-01-09T14:50:06.647Z,120.00
2019-01-09T14:51:06.638Z,108.00
2019-01-09T14:52:06.625Z,88.00
2019-01-09T14:53:06.617Z,84.00
2019-01-09T14:54:06.606Z,80.00
2019-01-09T14:55:06.594Z,72.00
2019-01-09T14:56:06.585Z,76.00
2019-01-09T14:57:06.588Z,76.00
2019-01-09T14:58:06.564Z,60.00
2019-01-09T14:59:06.549Z,56.00
2019-01-09T15:00:06.538Z,64.00
2019-01-09T15:01:06.534Z,72.00
2019-01-09T15:02:06.514Z,72.00
2019-01-09T15:03:06.505Z,80.00
2019-01-09T15:04:06.499Z,88.00
2019-01-09T15:05:06.581Z,88.00
2019-01-09T15:06:06.519Z,96.00
2019-01-09T15:07:06.465Z,84.00
2019-01-09T15:08:06.468Z,80.00
2019-01-09T15:09:06.440Z,72.00
2019-01-09T15:10:06.430Z,60.00
2019-01-09T15:11:06.416Z,60.00
2019-01-09T15:12:06.406Z,56.00
2019-01-09T15:13:06.392Z,60.00
2019-01-09T15:14:06.381Z,56.00
2019-01-09T15:15:06.378Z,52.00
2019-01-09T15:16:06.362Z,44.00
2019-01-09T15:17:06.349Z,40.00
2019-01-09T15:18:06.337Z,36.00
2019-01-09T15:19:06.328Z,32.00
2019-01-09T15:20:06.317Z,32.00
2019-01-09T15:21:06.395Z,32.00
2019-01-09T15:22:06.296Z,28.00
2019-01-09T15:23:06.291Z,24.00
2019-01-09T15:24:08.522Z,20.00
2019-01-09T15:25:06.264Z,20.00
2019-01-09T15:26:06.252Z,20.00
2019-01-09T15:27:06.237Z,20.00
2019-01-09T15:28:06.231Z,16.00
2019-01-09T15:29:06.222Z,16.00
2019-01-09T15:30:06.223Z,12.00
2019-01-09T15:31:06.192Z,8.00
2019-01-09T15:32:06.189Z,12.00
2019-01-09T15:33:06.174Z,8.00
2019-01-09T15:34:06.162Z,8.00
2019-01-09T15:35:06.149Z,8.00
2019-01-09T15:36:06.137Z,8.00
2019-01-09T15:37:06.128Z,4.00
2019-01-09T15:38:06.115Z,4.00
2019-01-09T15:39:06.110Z,8.00
2019-01-09T15:40:06.280Z,4.00
2019-01-09T15:41:06.084Z,4.00
2019-01-09T15:42:06.077Z,4.00
2019-01-09T15:43:06.063Z,4.00
2019-01-09T15:44:06.050Z,4.00
2019-01-09T15:45:06.038Z,4.00
2019-01-09T15:46:06.028Z,4.00
2019-01-09T15:47:06.033Z,0.00
2019-01-09T15:48:06.019Z,4.00
2019-01-09T15:49:05.995Z,4.00
2019-01-09T15:50:05.982Z,4.00
2019-01-09T15:51:05.972Z,4.00
2019-01-09T15:52:05.959Z,4.00
2019-01-09T15:53:05.952Z,4.00
2019-01-09T15:54:05.945Z,4.00
2019-01-09T15:55:05.926Z,4.00
2019-01-09T15:56:05.915Z,4.00
2019-01-09T15:57:05.952Z,4.00
2019-01-09T15:58:05.892Z,4.00
2019-01-09T15:59:05.880Z,4.00
2019-01-09T16:00:05.869Z,4.00
2019-01-09T16:01:05.858Z,4.00
2019-01-09T16:02:05.846Z,4.00
2019-01-09T16:03:05.835Z,4.00
2019-01-09T16:04:05.828Z,4.00
2019-01-09T16:05:05.812Z,4.00
2019-01-09T16:06:05.808Z,4.00
2019-01-09T16:07:05.790Z,4.00
2019-01-09T16:08:05.781Z,4.00
2019-01-09T16:09:05.768Z,4.00
2019-01-09T16:10:14.179Z,4.00
2019-01-09T16:11:30.228Z,4.00
2019-01-09T16:12:30.215Z,4.00
2019-01-09T16:13:30.221Z,4.00
2019-01-09T16:14:30.193Z,4.00
2019-01-09T16:15:30.183Z,4.00
2019-01-09T16:16:30.180Z,4.00
2019-01-09T16:17:30.161Z,4.00
2019-01-09T16:18:30.151Z,4.00
2019-01-09T16:19:30.138Z,4.00
2019-01-09T16:20:30.130Z,4.00
2019-01-09T16:21:30.118Z,4.00
2019-01-09T16:22:30.104Z,4.00
2019-01-09T16:23:30.093Z,4.00
2019-01-09T16:24:30.087Z,4.00
2019-01-09T16:25:30.073Z,4.00
2019-01-09T16:26:30.059Z,4.00
2019-01-09T16:27:30.047Z,4.00
2019-01-09T16:28:30.042Z,4.00
2019-01-09T16:29:30.028Z,4.00
2019-01-09T16:30:34.283Z,4.00
2019-01-09T16:31:30.004Z,4.00
2019-01-09T16:32:30.002Z,4.00
2019-01-09T16:33:29.980Z,4.00
2019-01-09T16:34:29.971Z,4.00
2019-01-09T16:35:29.978Z,4.00
2019-01-09T16:36:29.945Z,4.00
2019-01-09T16:37:29.934Z,4.00
2019-01-09T16:38:29.929Z,4.00
2019-01-09T16:39:30.997Z,4.00
2019-01-09T16:40:29.901Z,4.00
2019-01-09T16:41:29.891Z,4.00
2019-01-09T16:42:29.879Z,4.00
2019-01-09T16:43:29.875Z,4.00
2019-01-09T16:44:29.865Z,4.00
2019-01-09T16:45:29.843Z,4.00
2019-01-09T16:46:29.832Z,4.00
2019-01-09T16:47:29.821Z,4.00
2019-01-09T16:48:29.809Z,4.00
2019-01-09T16:49:29.803Z,4.00
2019-01-09T16:50:29.792Z,4.00
2019-01-09T16:51:29.778Z,4.00
2019-01-09T16:52:29.770Z,4.00
2019-01-09T16:53:29.753Z,4.00
2019-01-09T16:54:29.745Z,4.00
2019-01-09T16:55:29.730Z,4.00
2019-01-09T16:56:29.724Z,4.00
2019-01-09T16:57:29.714Z,4.00
2019-01-09T16:58:29.704Z,4.00
2019-01-09T16:59:29.685Z,4.00
2019-01-09T17:00:29.675Z,4.00
2019-01-09T17:01:29.663Z,4.00
2019-01-09T17:02:29.657Z,4.00
2019-01-09T17:03:29.641Z,4.00
2019-01-09T17:04:29.629Z,4.00
2019-01-09T17:05:29.619Z,4.00
2019-01-09T17:06:29.607Z,4.00